createdAt,value
2022-12-29T00:00:18.807Z,93.98
2022-12-29T00:01:18.761Z,94.08
2022-12-29T00:02:18.741Z,94.18
2022-12-29T00:03:18.844Z,94.18
2022-12-29T00:04:18.752Z,94.29
2022-12-29T00:05:18.737Z,94.29
2022-12-29T00:06:18.664Z,94.29
2022-12-29T00:07:18.689Z,94.39
2022-12-29T00:08:18.637Z,94.39
2022-12-29T00:09:18.672Z,94.18
2022-12-29T00:10:18.607Z,94.18
2022-12-29T00:11:18.675Z,94.18
2022-12-29T00:12:18.616Z,94.08
2022-12-29T00:13:18.597Z,94.08
2022-12-29T00:14:24.204Z,94.08
2022-12-29T00:15:19.618Z,93.98
2022-12-29T00:16:18.668Z,93.87
2022-12-29T00:17:18.616Z,93.67
2022-12-29T00:18:18.555Z,93.57
2022-12-29T00:19:18.537Z,93.57
2022-12-29T00:20:18.517Z,93.42
2022-12-29T00:21:18.519Z,93.21
2022-12-29T00:22:18.487Z,93.01
2022-12-29T00:23:18.498Z,92.80
2022-12-29T00:24:18.475Z,92.70
2022-12-29T00:25:18.483Z,92.60
2022-12-29T00:26:18.439Z,92.40
2022-12-29T00:27:18.460Z,92.40
2022-12-29T00:28:18.420Z,92.29
2022-12-29T00:29:18.468Z,92.40
2022-12-29T00:30:18.398Z,92.19
2022-12-29T00:31:18.484Z,91.99
2022-12-29T00:32:18.383Z,91.78
2022-12-29T00:33:18.375Z,91.63
2022-12-29T00:34:18.390Z,91.74
2022-12-29T00:35:18.724Z,91.63
2022-12-29T00:36:18.326Z,91.74
2022-12-29T00:37:18.350Z,91.63
2022-12-29T00:38:18.299Z,91.53
2022-12-29T00:39:18.349Z,91.63
2022-12-29T00:40:18.287Z,91.78
2022-12-29T00:41:18.308Z,91.88
2022-12-29T00:42:18.257Z,91.78
2022-12-29T00:43:18.258Z,91.88
2022-12-29T00:44:18.234Z,91.88
2022-12-29T00:45:18.257Z,91.88
2022-12-29T00:46:20.136Z,91.99
2022-12-29T00:47:18.335Z,91.99
2022-12-29T00:48:18.205Z,91.99
2022-12-29T00:49:18.189Z,91.94
2022-12-29T00:50:18.165Z,91.84
2022-12-29T00:51:18.238Z,91.84
2022-12-29T00:52:18.133Z,91.84
2022-12-29T00:53:18.157Z,91.63
2022-12-29T00:54:18.365Z,91.53
2022-12-29T00:55:18.134Z,91.63
2022-12-29T00:56:18.191Z,91.42
2022-12-29T00:57:18.155Z,91.42
2022-12-29T00:58:18.074Z,91.42
2022-12-29T00:59:18.117Z,91.42
2022-12-29T01:00:18.107Z,91.42
2022-12-29T01:01:18.208Z,91.53
2022-12-29T01:02:18.114Z,91.63
2022-12-29T01:03:18.145Z,91.42
2022-12-29T01:04:18.012Z,91.53
2022-12-29T01:05:18.368Z,91.42
2022-12-29T01:06:18.018Z,91.42
2022-12-29T01:07:18.335Z,91.42
2022-12-29T01:08:17.965Z,91.42
2022-12-29T01:09:17.974Z,91.42
2022-12-29T01:10:17.934Z,91.33
2022-12-29T01:11:17.955Z,91.33
2022-12-29T01:12:17.980Z,91.42
2022-12-29T01:13:17.944Z,91.53
2022-12-29T01:14:18.063Z,91.53
2022-12-29T01:15:17.922Z,91.53
2022-12-29T01:16:18.080Z,91.42
2022-12-29T01:17:17.893Z,91.42
2022-12-29T01:18:17.862Z,91.42
2022-12-29T01:19:18.214Z,91.42
2022-12-29T01:20:17.843Z,91.33
2022-12-29T01:21:17.840Z,91.33
2022-12-29T01:22:17.782Z,91.33
2022-12-29T01:23:17.869Z,91.42
2022-12-29T01:24:17.793Z,91.42
2022-12-29T01:25:17.819Z,91.33
2022-12-29T01:26:17.773Z,91.38
2022-12-29T01:27:17.741Z,91.49
2022-12-29T01:28:23.960Z,91.49
2022-12-29T01:29:18.745Z,91.38
2022-12-29T01:30:17.742Z,91.38
2022-12-29T01:31:17.753Z,91.38
2022-12-29T01:32:18.134Z,91.49
2022-12-29T01:33:17.682Z,91.49
2022-12-29T01:34:17.674Z,91.38
2022-12-29T01:35:17.671Z,91.38
2022-12-29T01:36:17.677Z,91.38
2022-12-29T01:37:17.629Z,91.38
2022-12-29T01:38:17.634Z,91.28
2022-12-29T01:39:17.619Z,91.28
2022-12-29T01:40:17.625Z,91.38
2022-12-29T01:41:17.588Z,91.38
2022-12-29T01:42:17.610Z,91.59
2022-12-29T01:43:17.585Z,91.69
2022-12-29T01:44:17.573Z,91.80
2022-12-29T01:45:17.538Z,91.69
2022-12-29T01:46:17.667Z,91.69
2022-12-29T01:47:17.528Z,91.69
2022-12-29T01:48:17.544Z,91.69
2022-12-29T01:49:17.506Z,91.69
2022-12-29T01:50:17.509Z,91.49
2022-12-29T01:51:17.470Z,91.49
2022-12-29T01:52:17.481Z,91.49
2022-12-29T01:53:17.452Z,91.49
2022-12-29T01:54:17.453Z,91.49
2022-12-29T01:55:17.699Z,91.08
2022-12-29T01:56:17.424Z,90.97
2022-12-29T01:57:17.658Z,90.87
2022-12-29T01:58:17.411Z,90.77
2022-12-29T01:59:17.384Z,90.36
2022-12-29T02:00:17.993Z,90.36
2022-12-29T02:01:17.413Z,90.26
2022-12-29T02:02:17.462Z,90.26
2022-12-29T02:03:17.421Z,90.26
2022-12-29T02:04:17.360Z,90.16
2022-12-29T02:05:17.315Z,90.26
2022-12-29T02:06:17.340Z,90.36
2022-12-29T02:07:17.310Z,90.26
2022-12-29T02:08:17.311Z,90.05
2022-12-29T02:09:17.272Z,90.16
2022-12-29T02:10:17.282Z,90.05
2022-12-29T02:11:17.249Z,90.05
2022-12-29T02:12:17.250Z,90.05
2022-12-29T02:13:17.220Z,90.05
2022-12-29T02:14:17.221Z,90.20
2022-12-29T02:15:17.193Z,90.30
2022-12-29T02:16:17.236Z,90.40
2022-12-29T02:17:17.270Z,90.40
2022-12-29T02:18:17.188Z,90.40
2022-12-29T02:19:17.161Z,90.50
2022-12-29T02:20:17.173Z,90.61
2022-12-29T02:21:17.119Z,90.61
2022-12-29T02:22:17.143Z,90.61
2022-12-29T02:23:17.225Z,90.61
2022-12-29T02:24:17.122Z,90.61
2022-12-29T02:25:17.079Z,90.40
2022-12-29T02:26:17.091Z,90.40
2022-12-29T02:27:17.056Z,90.40
2022-12-29T02:28:17.071Z,90.50
2022-12-29T02:29:17.042Z,90.40
2022-12-29T02:30:17.059Z,90.40
2022-12-29T02:31:17.025Z,90.50
2022-12-29T02:32:17.017Z,90.50
2022-12-29T02:33:16.999Z,90.36
2022-12-29T02:34:17.002Z,90.26
2022-12-29T02:35:16.970Z,90.36
2022-12-29T02:36:16.980Z,90.36
2022-12-29T02:37:16.950Z,90.36
2022-12-29T02:38:17.003Z,90.26
2022-12-29T02:39:16.912Z,90.36
2022-12-29T02:40:16.951Z,90.36
2022-12-29T02:41:16.916Z,90.36
2022-12-29T02:42:16.955Z,90.36
2022-12-29T02:43:16.889Z,90.26
2022-12-29T02:44:16.922Z,90.26
2022-12-29T02:45:16.887Z,90.36
2022-12-29T02:46:16.893Z,90.46
2022-12-29T02:47:16.866Z,90.56
2022-12-29T02:48:16.856Z,90.67
2022-12-29T02:49:16.815Z,90.87
2022-12-29T02:50:16.824Z,91.08
2022-12-29T02:51:16.880Z,91.18
2022-12-29T02:52:16.813Z,91.38
2022-12-29T02:53:16.825Z,91.59
2022-12-29T02:54:16.826Z,91.80
2022-12-29T02:55:16.746Z,92.00
2022-12-29T02:56:16.776Z,92.21
2022-12-29T02:57:16.718Z,92.46
2022-12-29T02:58:16.951Z,92.55
2022-12-29T02:59:16.713Z,92.76
2022-12-29T03:00:16.707Z,92.86
2022-12-29T03:01:16.731Z,93.07
2022-12-29T03:02:16.784Z,93.17
2022-12-29T03:03:16.713Z,93.38
2022-12-29T03:04:16.678Z,93.59
2022-12-29T03:05:16.632Z,93.68
2022-12-29T03:06:16.670Z,93.79
2022-12-29T03:07:16.596Z,93.99
2022-12-29T03:08:16.606Z,94.20
2022-12-29T03:09:18.717Z,94.30
2022-12-29T03:10:16.587Z,94.40
2022-12-29T03:11:16.570Z,94.61
2022-12-29T03:12:16.583Z,94.81
2022-12-29T03:13:16.543Z,95.02
2022-12-29T03:14:16.571Z,95.02
2022-12-29T03:15:16.549Z,95.17
2022-12-29T03:16:16.560Z,95.27
2022-12-29T03:17:16.527Z,95.37
2022-12-29T03:18:16.515Z,95.47
2022-12-29T03:19:16.471Z,95.57
2022-12-29T03:20:16.492Z,95.57
2022-12-29T03:21:16.448Z,95.68
2022-12-29T03:22:16.475Z,95.89
2022-12-29T03:23:16.710Z,95.89
2022-12-29T03:24:16.425Z,95.98
2022-12-29T03:25:16.536Z,95.98
2022-12-29T03:26:16.407Z,96.09
2022-12-29T03:27:16.366Z,96.19
2022-12-29T03:28:16.407Z,96.19
2022-12-29T03:29:16.352Z,96.30
2022-12-29T03:30:16.386Z,96.30
2022-12-29T03:31:16.386Z,96.40
2022-12-29T03:32:16.352Z,96.30
2022-12-29T03:33:16.327Z,96.40
2022-12-29T03:34:16.336Z,96.40
2022-12-29T03:35:16.322Z,96.40
2022-12-29T03:36:16.324Z,96.40
2022-12-29T03:37:16.284Z,96.40
2022-12-29T03:38:16.284Z,96.40
2022-12-29T03:39:16.253Z,96.50
2022-12-29T03:40:16.442Z,96.50
2022-12-29T03:41:16.218Z,96.60
2022-12-29T03:42:16.243Z,96.60
2022-12-29T03:43:16.210Z,96.60
2022-12-29T03:44:16.225Z,96.60
2022-12-29T03:45:16.165Z,96.60
2022-12-29T03:46:16.253Z,96.50
2022-12-29T03:47:16.151Z,96.50
2022-12-29T03:48:16.233Z,96.30
2022-12-29T03:49:16.126Z,96.30
2022-12-29T03:50:16.173Z,96.19
2022-12-29T03:51:16.108Z,96.19
2022-12-29T03:52:16.141Z,96.09
2022-12-29T03:53:16.093Z,96.09
2022-12-29T03:54:16.119Z,95.98
2022-12-29T03:55:16.076Z,95.98
2022-12-29T03:56:16.055Z,95.89
2022-12-29T03:57:16.088Z,95.89
2022-12-29T03:58:16.081Z,95.78
2022-12-29T03:59:16.756Z,95.78
2022-12-29T04:00:16.148Z,95.78
2022-12-29T04:01:16.053Z,95.89
2022-12-29T04:02:16.144Z,95.89
2022-12-29T04:03:16.027Z,95.84
2022-12-29T04:04:15.975Z,95.84
2022-12-29T04:05:15.949Z,95.94
2022-12-29T04:06:15.954Z,95.94
2022-12-29T04:07:15.932Z,95.94
2022-12-29T04:08:15.936Z,96.09
2022-12-29T04:09:15.897Z,96.04
2022-12-29T04:10:15.902Z,96.19
2022-12-29T04:11:15.874Z,96.15
2022-12-29T04:12:15.893Z,96.25
2022-12-29T04:13:15.860Z,96.30
2022-12-29T04:14:15.869Z,96.25
2022-12-29T04:15:15.832Z,96.25
2022-12-29T04:16:15.946Z,96.25
2022-12-29T04:17:15.801Z,96.35
2022-12-29T04:18:15.853Z,96.35
2022-12-29T04:19:15.795Z,96.45
2022-12-29T04:20:15.873Z,96.45
2022-12-29T04:21:15.868Z,96.50
2022-12-29T04:22:15.765Z,96.50
2022-12-29T04:23:15.732Z,96.50
2022-12-29T04:24:15.803Z,96.60
2022-12-29T04:25:15.704Z,96.70
2022-12-29T04:26:15.713Z,96.60
2022-12-29T04:27:15.690Z,96.60
2022-12-29T04:28:15.696Z,96.60
2022-12-29T04:29:15.670Z,96.70
2022-12-29T04:30:15.676Z,96.60
2022-12-29T04:31:15.667Z,96.60
2022-12-29T04:32:15.653Z,96.60
2022-12-29T04:33:15.643Z,96.60
2022-12-29T04:34:15.624Z,96.60
2022-12-29T04:35:15.633Z,96.60
2022-12-29T04:36:15.630Z,96.60
2022-12-29T04:37:15.622Z,96.60
2022-12-29T04:38:15.585Z,96.50
2022-12-29T04:39:15.556Z,96.50
2022-12-29T04:40:15.563Z,96.50
2022-12-29T04:41:15.543Z,96.50
2022-12-29T04:42:15.545Z,96.50
2022-12-29T04:43:15.502Z,96.40
2022-12-29T04:44:15.518Z,96.40
2022-12-29T04:45:15.483Z,96.40
2022-12-29T04:46:15.542Z,96.40
2022-12-29T04:47:15.485Z,96.40
2022-12-29T04:48:15.497Z,96.40
2022-12-29T04:49:15.447Z,96.40
2022-12-29T04:50:15.465Z,96.50
2022-12-29T04:51:15.412Z,96.50
2022-12-29T04:52:15.426Z,96.40
2022-12-29T04:53:15.430Z,96.40
2022-12-29T04:54:15.413Z,96.30
2022-12-29T04:55:15.407Z,96.40
2022-12-29T04:56:15.377Z,96.40
2022-12-29T04:57:15.343Z,96.40
2022-12-29T04:58:22.221Z,96.30
2022-12-29T04:59:16.354Z,96.30
2022-12-29T05:00:15.388Z,96.19
2022-12-29T05:01:15.381Z,96.19
2022-12-29T05:02:15.432Z,96.09
2022-12-29T05:03:15.347Z,95.98
2022-12-29T05:04:15.312Z,95.89
2022-12-29T05:05:15.286Z,95.89
2022-12-29T05:06:15.272Z,95.78
2022-12-29T05:07:15.235Z,95.78
2022-12-29T05:08:15.247Z,95.78
2022-12-29T05:09:15.213Z,95.68
2022-12-29T05:10:15.261Z,95.68
2022-12-29T05:11:15.199Z,95.57
2022-12-29T05:12:15.249Z,95.47
2022-12-29T05:13:15.157Z,95.37
2022-12-29T05:14:15.204Z,95.27
2022-12-29T05:15:15.154Z,95.27
2022-12-29T05:16:15.229Z,95.17
2022-12-29T05:17:15.163Z,95.06
2022-12-29T05:18:15.182Z,95.06
2022-12-29T05:19:15.131Z,95.06
2022-12-29T05:20:15.135Z,94.96
2022-12-29T05:21:15.071Z,94.85
2022-12-29T05:22:15.519Z,94.76
2022-12-29T05:23:15.062Z,94.65
2022-12-29T05:24:15.087Z,94.55
2022-12-29T05:25:15.041Z,94.55
2022-12-29T05:26:15.089Z,94.45
2022-12-29T05:27:15.006Z,94.34
2022-12-29T05:28:15.018Z,94.45
2022-12-29T05:29:15.012Z,94.55
2022-12-29T05:30:15.049Z,94.55
2022-12-29T05:31:14.987Z,94.65
2022-12-29T05:32:14.989Z,94.65
2022-12-29T05:33:14.927Z,94.76
2022-12-29T05:34:14.970Z,94.45
2022-12-29T05:35:14.906Z,94.45
2022-12-29T05:36:14.944Z,94.76
2022-12-29T05:37:14.895Z,94.85
2022-12-29T05:38:14.906Z,94.96
2022-12-29T05:39:14.860Z,95.17
2022-12-29T05:40:14.928Z,95.27
2022-12-29T05:41:14.871Z,95.37
2022-12-29T05:42:15.315Z,95.52
2022-12-29T05:43:14.878Z,95.83
2022-12-29T05:44:14.812Z,95.93
2022-12-29T05:45:14.833Z,96.14
2022-12-29T05:46:14.823Z,96.23
2022-12-29T05:47:14.816Z,96.44
2022-12-29T05:48:14.807Z,96.55
2022-12-29T05:49:14.783Z,96.65
2022-12-29T05:50:14.754Z,96.75
2022-12-29T05:51:14.775Z,96.75
2022-12-29T05:52:14.730Z,96.85
2022-12-29T05:53:14.756Z,96.95
2022-12-29T05:54:14.707Z,96.95
2022-12-29T05:55:14.766Z,96.95
2022-12-29T05:56:14.696Z,97.06
2022-12-29T05:57:14.713Z,97.06
2022-12-29T05:58:14.651Z,97.06
2022-12-29T05:59:14.651Z,97.06
2022-12-29T06:00:14.648Z,97.06
2022-12-29T06:01:14.634Z,97.16
2022-12-29T06:02:15.334Z,97.16
2022-12-29T06:03:14.722Z,97.27
2022-12-29T06:04:14.610Z,97.27
2022-12-29T06:05:14.606Z,97.27
2022-12-29T06:06:14.554Z,97.27
2022-12-29T06:07:14.578Z,97.22
2022-12-29T06:08:14.551Z,97.22
2022-12-29T06:09:14.558Z,97.27
2022-12-29T06:10:14.515Z,97.27
2022-12-29T06:11:14.550Z,97.27
2022-12-29T06:12:14.507Z,97.37
2022-12-29T06:13:14.496Z,97.37
2022-12-29T06:14:14.471Z,97.37
2022-12-29T06:15:14.490Z,97.37
2022-12-29T06:16:14.472Z,97.37
2022-12-29T06:17:14.471Z,97.37
2022-12-29T06:18:19.821Z,97.27
2022-12-29T06:19:15.430Z,97.27
2022-12-29T06:20:14.395Z,97.27
2022-12-29T06:21:14.413Z,97.27
2022-12-29T06:22:14.391Z,97.16
2022-12-29T06:23:14.408Z,97.12
2022-12-29T06:24:14.382Z,97.12
2022-12-29T06:25:14.368Z,97.12
2022-12-29T06:26:14.350Z,97.02
2022-12-29T06:27:14.341Z,97.02
2022-12-29T06:28:14.310Z,97.02
2022-12-29T06:29:14.340Z,96.91
2022-12-29T06:30:14.289Z,96.91
2022-12-29T06:31:14.396Z,96.91
2022-12-29T06:32:14.297Z,96.91
2022-12-29T06:33:14.331Z,96.81
2022-12-29T06:34:14.265Z,96.81
2022-12-29T06:35:14.249Z,96.91
2022-12-29T06:36:14.214Z,96.91
2022-12-29T06:37:14.232Z,96.81
2022-12-29T06:38:14.211Z,96.81
2022-12-29T06:39:14.241Z,96.70
2022-12-29T06:40:14.180Z,96.70
2022-12-29T06:41:14.186Z,96.70
2022-12-29T06:42:14.168Z,96.70
2022-12-29T06:43:14.237Z,96.70
2022-12-29T06:44:14.133Z,96.60
2022-12-29T06:45:14.150Z,96.70
2022-12-29T06:46:14.204Z,96.70
2022-12-29T06:47:14.112Z,96.81
2022-12-29T06:48:14.085Z,96.81
2022-12-29T06:49:14.087Z,96.81
2022-12-29T06:50:14.118Z,96.91
2022-12-29T06:51:14.084Z,97.02
2022-12-29T06:52:14.202Z,97.12
2022-12-29T06:53:14.044Z,97.12
2022-12-29T06:54:14.050Z,97.22
2022-12-29T06:55:14.046Z,97.32
2022-12-29T06:56:14.024Z,97.32
2022-12-29T06:57:14.005Z,97.42
2022-12-29T06:58:13.978Z,97.53
2022-12-29T06:59:13.981Z,97.63
2022-12-29T07:00:18.052Z,97.73
2022-12-29T07:01:15.026Z,97.78
2022-12-29T07:02:14.046Z,97.83
2022-12-29T07:03:14.042Z,97.99
2022-12-29T07:04:14.049Z,98.08
2022-12-29T07:05:13.997Z,98.08
2022-12-29T07:06:13.924Z,98.19
2022-12-29T07:07:13.955Z,98.19
2022-12-29T07:08:13.888Z,98.29
2022-12-29T07:09:13.914Z,98.29
2022-12-29T07:10:13.820Z,98.29
2022-12-29T07:11:13.853Z,98.39
2022-12-29T07:12:13.822Z,98.39
2022-12-29T07:13:13.825Z,98.39
2022-12-29T07:14:13.788Z,98.50
2022-12-29T07:15:13.815Z,98.50
2022-12-29T07:16:13.786Z,98.50
2022-12-29T07:17:13.784Z,98.50
2022-12-29T07:18:13.817Z,98.50
2022-12-29T07:19:13.784Z,98.60
2022-12-29T07:20:13.719Z,98.60
2022-12-29T07:21:13.794Z,98.70
2022-12-29T07:22:13.727Z,98.70
2022-12-29T07:23:13.737Z,98.70
2022-12-29T07:24:13.697Z,98.70
2022-12-29T07:25:13.678Z,98.80
2022-12-29T07:26:13.657Z,98.80
2022-12-29T07:27:13.680Z,98.80
2022-12-29T07:28:13.683Z,98.91
2022-12-29T07:29:13.637Z,99.01
2022-12-29T07:30:13.638Z,99.01
2022-12-29T07:31:13.641Z,99.01
2022-12-29T07:32:13.618Z,99.01
2022-12-29T07:33:13.597Z,99.01
2022-12-29T07:34:13.599Z,99.11
2022-12-29T07:35:13.616Z,99.11
2022-12-29T07:36:13.531Z,99.11
2022-12-29T07:37:13.597Z,99.21
2022-12-29T07:38:13.538Z,99.32
2022-12-29T07:39:13.567Z,99.32
2022-12-29T07:40:13.537Z,99.32
2022-12-29T07:41:13.518Z,99.32
2022-12-29T07:42:13.481Z,99.32
2022-12-29T07:43:13.490Z,99.32
2022-12-29T07:44:13.457Z,99.32
2022-12-29T07:45:13.568Z,99.32
2022-12-29T07:46:54.580Z,99.32
2022-12-29T07:47:14.428Z,99.32
2022-12-29T07:48:13.431Z,99.11
2022-12-29T07:49:13.430Z,98.80
2022-12-29T07:50:13.416Z,98.50
2022-12-29T07:51:13.407Z,98.39
2022-12-29T07:52:13.370Z,98.29
2022-12-29T07:53:13.390Z,98.39
2022-12-29T07:54:13.367Z,98.39
2022-12-29T07:55:13.395Z,98.39
2022-12-29T07:56:13.332Z,98.39
2022-12-29T07:57:13.359Z,98.50
2022-12-29T07:58:13.282Z,98.50
2022-12-29T07:59:13.323Z,98.60
2022-12-29T08:00:13.269Z,98.70
2022-12-29T08:01:13.349Z,98.70
2022-12-29T08:02:13.500Z,98.80
2022-12-29T08:03:13.255Z,98.80
2022-12-29T08:04:13.273Z,98.80
2022-12-29T08:05:13.249Z,98.80
2022-12-29T08:06:13.196Z,98.80
2022-12-29T08:07:13.312Z,98.91
2022-12-29T08:08:13.177Z,98.91
2022-12-29T08:09:19.628Z,98.91
2022-12-29T08:10:14.168Z,98.91
2022-12-29T08:11:13.204Z,98.91
2022-12-29T08:12:13.188Z,98.91
2022-12-29T08:13:13.163Z,98.91
2022-12-29T08:14:13.134Z,99.01
2022-12-29T08:15:13.191Z,99.01
2022-12-29T08:16:13.401Z,99.01
2022-12-29T08:17:13.109Z,99.01
2022-12-29T08:18:13.076Z,99.01
2022-12-29T08:19:13.097Z,99.01
2022-12-29T08:20:13.049Z,99.11
2022-12-29T08:21:13.073Z,99.01
2022-12-29T08:22:13.046Z,99.01
2022-12-29T08:23:13.075Z,99.01
2022-12-29T08:24:13.666Z,99.01
2022-12-29T08:25:13.029Z,99.01
2022-12-29T08:26:13.095Z,99.01
2022-12-29T08:27:19.955Z,98.91
2022-12-29T08:28:13.963Z,98.91
2022-12-29T08:29:12.992Z,98.80
2022-12-29T08:30:12.946Z,98.70
2022-12-29T08:31:12.988Z,98.70
2022-12-29T08:32:12.935Z,98.60
2022-12-29T08:33:12.919Z,98.50
2022-12-29T08:34:12.956Z,98.39
2022-12-29T08:35:12.915Z,98.29
2022-12-29T08:36:12.875Z,98.19
2022-12-29T08:37:12.874Z,98.08
2022-12-29T08:38:12.852Z,98.08
2022-12-29T08:39:12.886Z,97.88
2022-12-29T08:40:12.828Z,97.78
2022-12-29T08:41:12.818Z,97.62
2022-12-29T08:42:12.852Z,97.52
2022-12-29T08:43:13.758Z,97.27
2022-12-29T08:44:12.796Z,97.27
2022-12-29T08:45:12.796Z,97.16
2022-12-29T08:46:12.971Z,97.06
2022-12-29T08:47:12.832Z,96.95
2022-12-29T08:48:12.728Z,96.85
2022-12-29T08:49:12.764Z,96.75
2022-12-29T08:50:12.727Z,96.75
2022-12-29T08:51:12.787Z,96.55
2022-12-29T08:52:12.842Z,96.34
2022-12-29T08:53:12.752Z,96.14
2022-12-29T08:54:12.659Z,95.93
2022-12-29T08:55:12.970Z,95.72
2022-12-29T08:56:12.685Z,95.72
2022-12-29T08:57:12.653Z,95.72
2022-12-29T08:58:12.603Z,95.52
2022-12-29T08:59:12.641Z,95.10
2022-12-29T09:00:12.668Z,95.10
2022-12-29T09:01:12.667Z,94.70
2022-12-29T09:02:12.718Z,94.49
2022-12-29T09:03:12.764Z,94.29
2022-12-29T09:04:16.246Z,94.18
2022-12-29T09:05:12.670Z,94.29
2022-12-29T09:06:12.566Z,94.29
2022-12-29T09:07:12.542Z,94.18
2022-12-29T09:08:12.543Z,94.29
2022-12-29T09:09:12.560Z,94.08
2022-12-29T09:10:12.483Z,93.87
2022-12-29T09:11:12.539Z,93.67
2022-12-29T09:12:12.515Z,93.57
2022-12-29T09:13:12.497Z,93.46
2022-12-29T09:14:12.441Z,93.16
2022-12-29T09:15:12.452Z,92.70
2022-12-29T09:16:12.462Z,92.50
2022-12-29T09:17:12.431Z,92.40
2022-12-29T09:18:19.040Z,92.19
2022-12-29T09:19:13.445Z,91.88
2022-12-29T09:20:12.372Z,91.67
2022-12-29T09:21:12.385Z,91.37
2022-12-29T09:22:12.378Z,91.27
2022-12-29T09:23:12.379Z,91.37
2022-12-29T09:24:12.352Z,91.16
2022-12-29T09:25:12.339Z,90.95
2022-12-29T09:26:12.362Z,90.85
2022-12-29T09:27:12.484Z,90.55
2022-12-29T09:28:12.308Z,90.55
2022-12-29T09:29:12.301Z,90.44
2022-12-29T09:30:12.252Z,90.75
2022-12-29T09:31:12.318Z,90.14
2022-12-29T09:32:18.226Z,90.24
2022-12-29T09:33:13.250Z,90.44
2022-12-29T09:34:12.202Z,90.24
2022-12-29T09:35:12.249Z,90.03
2022-12-29T09:36:12.170Z,90.24
2022-12-29T09:37:12.203Z,90.44
2022-12-29T09:38:12.153Z,90.44
2022-12-29T09:39:12.163Z,90.14
2022-12-29T09:40:12.184Z,89.93
2022-12-29T09:41:12.152Z,90.14
2022-12-29T09:42:12.161Z,89.62
2022-12-29T09:43:12.133Z,89.42
2022-12-29T09:44:12.136Z,89.52
2022-12-29T09:45:12.127Z,89.52
2022-12-29T09:46:12.357Z,89.42
2022-12-29T09:47:12.348Z,89.31
2022-12-29T09:48:12.300Z,89.31
2022-12-29T09:49:12.075Z,89.21
2022-12-29T09:50:12.052Z,88.70
2022-12-29T09:51:12.059Z,88.70
2022-12-29T09:52:12.019Z,88.70
2022-12-29T09:53:12.012Z,88.80
2022-12-29T09:54:12.253Z,88.80
2022-12-29T09:55:14.181Z,89.01
2022-12-29T09:56:11.974Z,89.11
2022-12-29T09:57:11.969Z,89.42
2022-12-29T09:58:11.939Z,89.11
2022-12-29T09:59:11.914Z,88.70
2022-12-29T10:00:11.919Z,88.70
2022-12-29T10:01:11.942Z,88.70
2022-12-29T10:02:12.070Z,88.59
2022-12-29T10:03:12.000Z,88.80
2022-12-29T10:04:11.897Z,87.98
2022-12-29T10:05:11.854Z,88.18
2022-12-29T10:06:11.856Z,88.39
2022-12-29T10:07:28.937Z,88.49
2022-12-29T10:08:17.349Z,87.98
2022-12-29T10:09:11.864Z,87.88
2022-12-29T10:10:11.828Z,87.77
2022-12-29T10:11:11.814Z,87.88
2022-12-29T10:12:11.780Z,87.67
2022-12-29T10:13:11.762Z,87.37
2022-12-29T10:14:15.833Z,86.95
2022-12-29T10:15:11.742Z,86.89
2022-12-29T10:16:11.806Z,86.44
2022-12-29T10:17:11.703Z,86.44
2022-12-29T10:18:11.746Z,86.95
2022-12-29T10:19:11.692Z,86.75
2022-12-29T10:20:11.700Z,85.82
2022-12-29T10:21:11.663Z,85.52
2022-12-29T10:22:11.670Z,85.52
2022-12-29T10:23:11.639Z,85.41
2022-12-29T10:24:11.677Z,85.31
2022-12-29T10:25:11.632Z,85.52
2022-12-29T10:26:11.628Z,85.62
2022-12-29T10:27:11.589Z,84.69
2022-12-29T10:28:11.632Z,84.69
2022-12-29T10:29:11.587Z,84.96
2022-12-29T10:30:11.599Z,83.94
2022-12-29T10:31:11.600Z,84.34
2022-12-29T10:32:11.701Z,84.14
2022-12-29T10:33:11.604Z,84.76
2022-12-29T10:34:11.550Z,84.86
2022-12-29T10:35:11.527Z,84.45
2022-12-29T10:36:11.555Z,84.25
2022-12-29T10:37:11.499Z,83.63
2022-12-29T10:38:11.510Z,83.32
2022-12-29T10:39:11.458Z,83.22
2022-12-29T10:40:11.522Z,83.22
2022-12-29T10:41:11.455Z,82.19
2022-12-29T10:42:11.463Z,82.19
2022-12-29T10:43:11.418Z,82.09
2022-12-29T10:44:11.424Z,82.60
2022-12-29T10:45:11.449Z,82.40
2022-12-29T10:46:11.495Z,82.60
2022-12-29T10:47:11.371Z,82.19
2022-12-29T10:48:11.419Z,81.27
2022-12-29T10:49:12.436Z,81.37
2022-12-29T10:50:11.358Z,82.29
2022-12-29T10:51:11.349Z,82.19
2022-12-29T10:52:11.349Z,81.85
2022-12-29T10:53:11.308Z,81.74
2022-12-29T10:54:11.323Z,82.15
2022-12-29T10:55:11.286Z,82.15
2022-12-29T10:56:11.305Z,82.36
2022-12-29T10:57:11.336Z,81.02
2022-12-29T10:58:11.316Z,80.51
2022-12-29T10:59:11.247Z,81.54
2022-12-29T11:00:11.249Z,81.95
2022-12-29T11:01:11.375Z,81.85
2022-12-29T11:02:11.377Z,81.54
2022-12-29T11:03:11.266Z,81.64
2022-12-29T11:04:11.210Z,82.15
2022-12-29T11:05:11.178Z,82.15
2022-12-29T11:06:11.182Z,82.15
2022-12-29T11:07:15.823Z,81.95
2022-12-29T11:08:12.168Z,81.34
2022-12-29T11:09:11.472Z,81.43
2022-12-29T11:10:11.128Z,80.62
2022-12-29T11:11:11.123Z,80.92
2022-12-29T11:12:11.110Z,80.92
2022-12-29T11:13:11.092Z,79.49
2022-12-29T11:14:11.086Z,80.31
2022-12-29T11:15:11.051Z,80.41
2022-12-29T11:16:11.114Z,80.31
2022-12-29T11:17:11.039Z,80.31
2022-12-29T11:18:11.047Z,80.51
2022-12-29T11:19:11.051Z,80.92
2022-12-29T11:20:11.020Z,80.51
2022-12-29T11:21:10.982Z,79.90
2022-12-29T11:22:11.081Z,80.41
2022-12-29T11:23:10.969Z,80.00
2022-12-29T11:24:10.969Z,80.51
2022-12-29T11:25:10.934Z,80.04
2022-12-29T11:26:10.952Z,79.42
2022-12-29T11:27:11.372Z,79.22
2022-12-29T11:28:10.970Z,79.93
2022-12-29T11:29:11.510Z,79.73
2022-12-29T11:30:10.967Z,79.93
2022-12-29T11:31:10.866Z,79.83
2022-12-29T11:32:10.942Z,79.11
2022-12-29T11:33:10.844Z,80.04
2022-12-29T11:34:10.866Z,80.45
2022-12-29T11:35:10.904Z,80.45
2022-12-29T11:36:11.789Z,79.93
2022-12-29T11:37:10.814Z,79.11
2022-12-29T11:38:10.835Z,78.91
2022-12-29T11:39:13.960Z,79.28
2022-12-29T11:40:10.776Z,78.77
2022-12-29T11:41:10.773Z,78.77
2022-12-29T11:42:10.788Z,78.97
2022-12-29T11:43:10.746Z,78.77
2022-12-29T11:44:10.739Z,78.97
2022-12-29T11:45:11.349Z,78.87
2022-12-29T11:46:10.787Z,78.87
2022-12-29T11:47:10.698Z,78.87
2022-12-29T11:48:10.717Z,78.05
2022-12-29T11:49:10.664Z,78.77
2022-12-29T11:50:10.685Z,78.77
2022-12-29T11:51:10.723Z,78.05
2022-12-29T11:52:10.653Z,78.56
2022-12-29T11:53:10.624Z,78.25
2022-12-29T11:54:10.645Z,77.95
2022-12-29T11:55:10.586Z,78.97
2022-12-29T11:56:10.611Z,77.84
2022-12-29T11:57:10.617Z,77.84
2022-12-29T11:58:10.593Z,77.54
2022-12-29T11:59:10.537Z,77.44
2022-12-29T12:00:10.576Z,77.64
2022-12-29T12:01:10.546Z,77.91
2022-12-29T12:02:10.702Z,77.91
2022-12-29T12:03:10.694Z,77.71
2022-12-29T12:04:10.585Z,77.71
2022-12-29T12:05:10.506Z,77.20
2022-12-29T12:06:10.547Z,77.40
2022-12-29T12:07:10.525Z,77.20
2022-12-29T12:08:10.528Z,76.78
2022-12-29T12:09:10.468Z,75.56
2022-12-29T12:10:10.480Z,76.68
2022-12-29T12:11:10.455Z,75.86
2022-12-29T12:12:10.434Z,75.35
2022-12-29T12:13:10.392Z,75.86
2022-12-29T12:14:10.475Z,75.35
2022-12-29T12:15:10.526Z,76.17
2022-12-29T12:16:10.467Z,75.15
2022-12-29T12:17:10.341Z,75.76
2022-12-29T12:18:10.394Z,75.66
2022-12-29T12:19:10.404Z,76.17
2022-12-29T12:20:10.355Z,75.76
2022-12-29T12:21:10.303Z,75.24
2022-12-29T12:22:10.311Z,75.04
2022-12-29T12:23:10.275Z,75.66
2022-12-29T12:24:10.277Z,75.45
2022-12-29T12:25:10.253Z,74.84
2022-12-29T12:26:10.255Z,75.24
2022-12-29T12:27:10.224Z,75.56
2022-12-29T12:28:10.362Z,74.32
2022-12-29T12:29:10.196Z,74.53
2022-12-29T12:30:10.212Z,75.04
2022-12-29T12:31:10.294Z,75.15
2022-12-29T12:32:10.205Z,74.43
2022-12-29T12:33:10.175Z,74.94
2022-12-29T12:34:10.181Z,74.43
2022-12-29T12:35:10.124Z,75.24
2022-12-29T12:36:10.164Z,75.04
2022-12-29T12:37:10.164Z,75.15
2022-12-29T12:38:10.133Z,75.45
2022-12-29T12:39:10.074Z,75.15
2022-12-29T12:40:10.113Z,75.45
2022-12-29T12:41:10.123Z,75.35
2022-12-29T12:42:10.075Z,75.04
2022-12-29T12:43:10.042Z,75.18
2022-12-29T12:44:10.051Z,74.77
2022-12-29T12:45:10.021Z,75.18
2022-12-29T12:46:10.092Z,75.90
2022-12-29T12:47:09.996Z,75.49
2022-12-29T12:48:09.998Z,74.98
2022-12-29T12:49:09.970Z,76.10
2022-12-29T12:50:09.984Z,76.20
2022-12-29T12:51:09.994Z,76.10
2022-12-29T12:52:10.008Z,76.10